createdAt,value
2023-04-10T00:02:26.313Z,10.22
2023-04-10T00:04:53.806Z,10.18
2023-04-10T00:07:21.282Z,10.24
2023-04-10T00:09:48.989Z,10.20
2023-04-10T00:12:16.555Z,10.18
2023-04-10T00:14:43.965Z,10.17
2023-04-10T00:17:11.341Z,10.24
2023-04-10T00:19:38.766Z,10.17
2023-04-10T00:22:06.259Z,10.10
2023-04-10T00:24:33.751Z,10.13
2023-04-10T00:27:01.734Z,10.08
2023-04-10T00:29:29.225Z,10.03
2023-04-10T00:31:56.690Z,10.04
2023-04-10T00:34:24.104Z,10.00
2023-04-10T00:36:51.557Z,10.02
2023-04-10T00:39:18.967Z,10.06
2023-04-10T00:41:46.340Z,10.03
2023-04-10T00:44:13.718Z,9.87
2023-04-10T00:46:41.374Z,9.87
2023-04-10T00:49:09.535Z,9.83
2023-04-10T00:51:38.077Z,9.85
2023-04-10T00:54:06.596Z,9.84
2023-04-10T00:56:34.526Z,9.80
2023-04-10T00:59:04.089Z,9.84
2023-04-10T01:01:32.668Z,9.82
2023-04-10T01:04:00.642Z,9.77
2023-04-10T01:06:40.657Z,9.68
2023-04-10T01:09:11.054Z,9.77
2023-04-10T01:11:41.189Z,9.68
2023-04-10T01:14:14.490Z,9.71
2023-04-10T01:16:53.233Z,9.64
2023-04-10T01:19:20.725Z,9.53
2023-04-10T01:21:48.843Z,9.48
2023-04-10T01:24:22.822Z,9.52
2023-04-10T01:27:08.697Z,9.55
2023-04-10T01:29:37.502Z,9.53
2023-04-10T01:32:09.384Z,9.40
2023-04-10T01:34:40.009Z,9.40
2023-04-10T01:37:13.133Z,9.32
2023-04-10T01:39:42.673Z,9.31
2023-04-10T01:42:11.546Z,9.32
2023-04-10T01:44:42.372Z,9.29
2023-04-10T01:47:09.847Z,9.26
2023-04-10T01:49:42.638Z,9.28
2023-04-10T01:52:10.764Z,9.28
2023-04-10T01:54:38.367Z,9.29
2023-04-10T01:57:06.450Z,9.30
2023-04-10T01:59:33.856Z,9.26
2023-04-10T02:02:02.081Z,9.22
2023-04-10T02:04:29.709Z,9.13
2023-04-10T02:07:09.468Z,9.14
2023-04-10T02:09:41.407Z,9.17
2023-04-10T02:12:11.422Z,9.19
2023-04-10T02:14:42.844Z,9.14
2023-04-10T02:17:11.381Z,9.22
2023-04-10T02:19:39.715Z,9.15
2023-04-10T02:22:07.182Z,9.19
2023-04-10T02:24:34.740Z,9.21
2023-04-10T02:27:02.656Z,9.17
2023-04-10T02:29:30.076Z,9.23
2023-04-10T02:31:57.562Z,9.16
2023-04-10T02:34:24.945Z,9.16
2023-04-10T02:36:52.671Z,9.18
2023-04-10T02:39:20.056Z,9.16
2023-04-10T02:41:47.445Z,9.21
2023-04-10T02:44:14.993Z,9.21
2023-04-10T02:46:42.900Z,9.31
2023-04-10T02:49:10.520Z,9.28
2023-04-10T02:51:37.962Z,9.38
2023-04-10T02:54:05.424Z,9.46
2023-04-10T02:56:34.698Z,9.54
2023-04-10T02:59:02.204Z,9.62
2023-04-10T03:01:29.969Z,9.71
2023-04-10T03:03:58.205Z,9.73
2023-04-10T03:06:27.338Z,9.81
2023-04-10T03:08:54.795Z,9.84
2023-04-10T03:11:22.261Z,9.95
2023-04-10T03:13:49.924Z,10.03
2023-04-10T03:16:18.553Z,9.98
2023-04-10T03:18:46.663Z,10.01
2023-04-10T03:21:14.118Z,10.02
2023-04-10T03:23:41.538Z,9.93
2023-04-10T03:26:08.943Z,10.04
2023-04-10T03:28:36.694Z,10.03
2023-04-10T03:31:04.970Z,10.06
2023-04-10T03:33:32.530Z,10.05
2023-04-10T03:36:00.073Z,10.03
2023-04-10T03:38:27.529Z,10.06
2023-04-10T03:40:54.948Z,10.03
2023-04-10T03:43:22.412Z,10.03
2023-04-10T03:45:49.926Z,9.94
2023-04-10T03:48:18.354Z,9.94
2023-04-10T03:50:45.772Z,9.95
2023-04-10T03:53:13.168Z,9.95
2023-04-10T03:55:41.114Z,9.97
2023-04-10T03:58:08.479Z,9.90
2023-04-10T04:00:35.940Z,9.84
2023-04-10T04:03:05.177Z,9.81
2023-04-10T04:05:33.028Z,9.72
2023-04-10T04:08:00.395Z,9.72
2023-04-10T04:10:27.863Z,9.64
2023-04-10T04:12:55.757Z,9.59
2023-04-10T04:15:23.882Z,9.56
2023-04-10T04:17:51.937Z,9.49
2023-04-10T04:20:19.398Z,9.43
2023-04-10T04:22:46.811Z,9.37
2023-04-10T04:25:14.245Z,9.31
2023-04-10T04:27:41.717Z,9.23
2023-04-10T04:30:09.528Z,9.20
2023-04-10T04:32:36.945Z,9.19
2023-04-10T04:35:04.423Z,9.17
2023-04-10T04:37:31.874Z,9.11
2023-04-10T04:39:59.306Z,9.06
2023-04-10T04:42:26.699Z,8.98
2023-04-10T04:44:54.053Z,8.95
2023-04-10T04:47:21.507Z,8.91
2023-04-10T04:49:48.997Z,8.94
2023-04-10T04:52:16.416Z,8.89
2023-04-10T04:54:43.748Z,8.84
2023-04-10T04:57:11.145Z,8.84
2023-04-10T04:59:38.734Z,8.78
2023-04-10T05:02:06.349Z,8.74
2023-04-10T05:04:33.856Z,8.60
2023-04-10T05:07:01.373Z,8.63
2023-04-10T05:09:28.806Z,8.59
2023-04-10T05:11:56.243Z,8.60
2023-04-10T05:14:23.627Z,8.69
2023-04-10T05:16:51.065Z,8.73
2023-04-10T05:19:18.493Z,8.75
2023-04-10T05:21:46.048Z,8.63
2023-04-10T05:24:13.424Z,8.72
2023-04-10T05:26:41.645Z,8.73
2023-04-10T05:29:09.101Z,8.79
2023-04-10T05:31:36.504Z,8.82
2023-04-10T05:34:03.969Z,8.84
2023-04-10T05:36:31.770Z,8.85
2023-04-10T05:38:59.264Z,9.02
2023-04-10T05:41:26.663Z,8.86
2023-04-10T05:43:54.028Z,9.03
2023-04-10T05:46:21.429Z,9.01
2023-04-10T05:48:48.917Z,9.02
2023-04-10T05:51:16.278Z,9.11
2023-04-10T05:53:43.706Z,9.16
2023-04-10T05:56:11.073Z,9.26
2023-04-10T05:58:38.543Z,9.22
2023-04-10T06:01:06.181Z,9.24
2023-04-10T06:03:33.807Z,9.30
2023-04-10T06:06:02.531Z,9.27
2023-04-10T06:08:30.048Z,9.35
2023-04-10T06:10:57.492Z,9.35
2023-04-10T06:13:25.250Z,9.38
2023-04-10T06:15:52.861Z,9.39
2023-04-10T06:18:20.490Z,9.40
2023-04-10T06:20:47.873Z,9.49
2023-04-10T06:23:15.912Z,9.49
2023-04-10T06:25:44.190Z,9.56
2023-04-10T06:28:11.672Z,9.64
2023-04-10T06:30:39.208Z,9.74
2023-04-10T06:33:06.664Z,9.72
2023-04-10T06:35:34.146Z,9.80
2023-04-10T06:38:01.593Z,9.88
2023-04-10T06:40:29.465Z,9.95
2023-04-10T06:42:56.870Z,10.03
2023-04-10T06:45:24.335Z,10.04
2023-04-10T06:47:52.408Z,9.86
2023-04-10T06:50:20.022Z,10.13
2023-04-10T06:52:47.892Z,10.15
2023-04-10T06:55:15.399Z,10.08
2023-04-10T06:57:43.494Z,10.20
2023-04-10T07:00:11.126Z,10.05
2023-04-10T07:02:38.574Z,10.18
2023-04-10T07:05:06.271Z,10.27
2023-04-10T07:07:34.134Z,10.40
2023-04-10T07:10:01.873Z,10.51
2023-04-10T07:12:29.291Z,10.44
2023-04-10T07:14:56.709Z,10.63
2023-04-10T07:17:24.138Z,10.67
2023-04-10T07:19:51.550Z,10.86
2023-04-10T07:22:18.978Z,10.92
2023-04-10T07:24:46.410Z,11.00
2023-04-10T07:27:13.823Z,11.08
2023-04-10T07:29:41.258Z,11.15
2023-04-10T07:32:08.781Z,11.34
2023-04-10T07:34:36.617Z,11.56
2023-04-10T07:37:04.006Z,11.73
2023-04-10T07:39:31.447Z,11.99
2023-04-10T07:41:58.889Z,12.19
2023-04-10T07:44:28.609Z,12.08
2023-04-10T07:46:56.153Z,12.00
2023-04-10T07:49:24.547Z,12.03
2023-04-10T07:51:51.980Z,12.11
2023-04-10T07:54:19.570Z,12.07
2023-04-10T07:56:46.921Z,12.46
2023-04-10T07:59:14.385Z,12.60
2023-04-10T08:01:41.965Z,12.56
2023-04-10T08:04:09.533Z,12.57
2023-04-10T08:06:37.040Z,12.65
2023-04-10T08:09:04.704Z,12.62
2023-04-10T08:11:37.377Z,12.87
2023-04-10T08:14:06.966Z,13.05
2023-04-10T08:16:35.283Z,13.12
2023-04-10T08:19:03.429Z,13.22
2023-04-10T08:21:31.901Z,12.87
2023-04-10T08:24:01.007Z,12.99
2023-04-10T08:26:28.497Z,13.02
2023-04-10T08:28:59.769Z,12.95
2023-04-10T08:31:28.415Z,13.26
2023-04-10T08:33:56.783Z,13.10
2023-04-10T08:36:24.548Z,13.27
2023-04-10T08:38:52.001Z,13.35
2023-04-10T08:41:19.980Z,13.29
2023-04-10T08:43:47.774Z,13.43
2023-04-10T08:46:15.497Z,13.52
2023-04-10T08:48:54.033Z,13.30
2023-04-10T08:51:25.986Z,13.32
2023-04-10T08:53:55.423Z,13.32
2023-04-10T08:56:23.774Z,13.37
2023-04-10T08:58:52.285Z,13.47
2023-04-10T09:01:21.070Z,13.42
2023-04-10T09:03:49.418Z,13.52
2023-04-10T09:06:16.950Z,13.10
2023-04-10T09:08:44.384Z,12.99
2023-04-10T09:11:13.193Z,13.18
2023-04-10T09:13:44.879Z,13.22
2023-04-10T09:16:12.903Z,13.28
2023-04-10T09:18:49.445Z,13.18
2023-04-10T09:21:18.281Z,13.02
2023-04-10T09:23:46.158Z,13.21
2023-04-10T09:26:29.622Z,13.27
2023-04-10T09:28:57.905Z,13.02
2023-04-10T09:31:29.379Z,13.30
2023-04-10T09:34:08.740Z,13.46
2023-04-10T09:36:36.828Z,13.21
2023-04-10T09:39:05.047Z,13.49
2023-04-10T09:41:32.668Z,13.41
2023-04-10T09:44:06.853Z,13.39
2023-04-10T09:46:35.171Z,13.77
2023-04-10T09:49:05.192Z,13.97
2023-04-10T09:51:33.986Z,14.15
2023-04-10T09:54:02.181Z,13.91
2023-04-10T09:56:34.607Z,14.20
2023-04-10T09:59:04.672Z,14.25
2023-04-10T10:01:34.769Z,14.35
2023-04-10T10:04:03.555Z,14.26
2023-04-10T10:06:34.748Z,14.46
2023-04-10T10:09:05.774Z,14.40
2023-04-10T10:11:36.997Z,14.49
2023-04-10T10:14:08.675Z,14.42
2023-04-10T10:16:40.688Z,14.42
2023-04-10T10:19:17.681Z,14.43
2023-04-10T10:21:45.413Z,14.80
2023-04-10T10:24:13.129Z,15.12
2023-04-10T10:26:41.017Z,15.52
2023-04-10T10:29:10.812Z,15.21
2023-04-10T10:31:38.844Z,15.58
2023-04-10T10:34:09.193Z,15.75
2023-04-10T10:36:37.299Z,15.57
2023-04-10T10:39:13.567Z,15.88
2023-04-10T10:41:44.424Z,15.87
2023-04-10T10:44:30.493Z,16.09
2023-04-10T10:47:16.501Z,15.97
2023-04-10T10:49:53.222Z,16.33
2023-04-10T10:52:39.535Z,16.34
2023-04-10T10:55:25.169Z,16.18
2023-04-10T10:57:52.984Z,16.49
2023-04-10T11:00:24.223Z,16.30
2023-04-10T11:03:14.623Z,16.43
2023-04-10T11:05:55.351Z,16.72
2023-04-10T11:08:35.212Z,16.96
2023-04-10T11:11:05.096Z,17.07
2023-04-10T11:13:32.710Z,17.19
2023-04-10T11:16:01.963Z,16.80
2023-04-10T11:18:56.084Z,16.91
2023-04-10T11:21:30.371Z,17.07
2023-04-10T11:23:57.766Z,17.08
2023-04-10T11:26:34.784Z,17.08
2023-04-10T11:29:05.944Z,17.10
2023-04-10T11:31:36.519Z,17.15
2023-04-10T11:34:05.918Z,17.38
2023-04-10T11:36:39.498Z,17.29
2023-04-10T11:39:08.851Z,17.19
2023-04-10T11:41:37.396Z,17.36
2023-04-10T11:44:05.640Z,17.49
2023-04-10T11:46:33.096Z,17.28
2023-04-10T11:49:02.395Z,17.52
2023-04-10T11:51:31.016Z,17.72
2023-04-10T11:54:08.454Z,17.62
2023-04-10T11:56:36.408Z,17.44
2023-04-10T11:59:07.569Z,17.72
2023-04-10T12:01:35.384Z,17.82
2023-04-10T12:04:03.006Z,17.50
2023-04-10T12:06:31.254Z,17.47
2023-04-10T12:08:58.681Z,17.75
2023-04-10T12:11:26.657Z,17.16
2023-04-10T12:13:54.842Z,17.20
2023-04-10T12:16:22.724Z,17.17
2023-04-10T12:18:50.836Z,17.40
2023-04-10T12:21:18.511Z,17.14
2023-04-10T12:23:45.893Z,17.48
2023-04-10T12:26:19.787Z,17.19
2023-04-10T12:28:57.693Z,17.21
2023-04-10T12:31:29.350Z,17.01
2023-04-10T12:33:57.893Z,17.04
2023-04-10T12:36:29.243Z,16.95
2023-04-10T12:39:00.373Z,17.23
2023-04-10T12:41:29.616Z,17.14
2023-04-10T12:44:13.705Z,17.10
2023-04-10T12:46:41.881Z,16.84
2023-04-10T12:49:19.594Z,16.95
2023-04-10T12:51:48.057Z,16.75
2023-04-10T12:54:28.822Z,16.70
2023-04-10T12:56:56.282Z,16.72
2023-04-10T12:59:24.326Z,16.87
2023-04-10T13:01:52.209Z,16.88
2023-04-10T13:04:19.953Z,16.78
2023-04-10T13:06:48.147Z,16.66
2023-04-10T13:09:15.912Z,16.52
2023-04-10T13:11:44.273Z,16.80
2023-04-10T13:14:12.883Z,16.61
2023-04-10T13:16:40.365Z,16.48
2023-04-10T13:19:07.830Z,16.53
2023-04-10T13:21:35.222Z,16.43
2023-04-10T13:24:02.633Z,16.36
2023-04-10T13:26:30.071Z,16.25
2023-04-10T13:28:57.511Z,16.25
2023-04-10T13:31:25.075Z,16.03
2023-04-10T13:33:52.530Z,15.84
2023-04-10T13:36:20.046Z,15.75
2023-04-10T13:38:47.450Z,15.81
2023-04-10T13:41:14.892Z,15.57
2023-04-10T13:43:42.312Z,15.13
2023-04-10T13:46:09.794Z,15.02
2023-04-10T13:48:41.269Z,15.05
2023-04-10T13:51:09.155Z,15.05
2023-04-10T13:53:36.720Z,14.99
2023-04-10T13:56:04.133Z,14.87
2023-04-10T13:58:34.302Z,14.82
2023-04-10T14:01:02.296Z,14.64
2023-04-10T14:03:29.835Z,14.72
2023-04-10T14:05:57.348Z,14.76
2023-04-10T14:08:24.778Z,14.63
2023-04-10T14:10:52.650Z,14.80
2023-04-10T14:13:20.096Z,14.82
2023-04-10T14:15:47.731Z,14.84
2023-04-10T14:18:17.448Z,14.65
2023-04-10T14:20:44.954Z,14.70
2023-04-10T14:23:18.170Z,14.60
2023-04-10T14:25:46.553Z,14.61
2023-04-10T14:28:17.957Z,14.56
2023-04-10T14:30:54.442Z,14.59
2023-04-10T14:33:21.891Z,14.51
2023-04-10T14:35:49.313Z,14.44
2023-04-10T14:38:16.836Z,14.28
2023-04-10T14:40:45.821Z,14.33
2023-04-10T14:43:13.248Z,14.26
2023-04-10T14:45:40.886Z,14.06
2023-04-10T14:48:08.478Z,14.19
2023-04-10T14:50:35.942Z,14.07
2023-04-10T14:53:03.319Z,14.00
2023-04-10T14:55:30.895Z,13.76
2023-04-10T14:57:58.943Z,13.62
2023-04-10T15:00:26.763Z,13.40
2023-04-10T15:02:54.562Z,13.18
2023-04-10T15:05:23.327Z,13.34
2023-04-10T15:07:50.781Z,13.14
2023-04-10T15:10:18.228Z,13.13
2023-04-10T15:12:45.659Z,13.17
2023-04-10T15:15:13.045Z,13.34
2023-04-10T15:17:41.291Z,13.26
2023-04-10T15:20:09.009Z,13.19
2023-04-10T15:22:36.672Z,13.24
2023-04-10T15:25:04.270Z,13.18
2023-04-10T15:27:31.724Z,13.23
2023-04-10T15:29:59.319Z,13.13
2023-04-10T15:32:26.826Z,13.41
2023-04-10T15:34:54.336Z,13.36
2023-04-10T15:37:21.712Z,13.15
2023-04-10T15:39:49.391Z,13.28
2023-04-10T15:42:16.893Z,13.26
2023-04-10T15:44:48.907Z,13.36
2023-04-10T15:47:16.664Z,13.19
2023-04-10T15:49:44.080Z,13.28
2023-04-10T15:52:11.465Z,13.19
2023-04-10T15:54:39.639Z,13.29
2023-04-10T15:57:07.103Z,13.31
2023-04-10T15:59:35.895Z,13.16
2023-04-10T16:02:03.361Z,13.08
2023-04-10T16:04:31.493Z,12.97
2023-04-10T16:06:59.159Z,12.98
2023-04-10T16:09:27.028Z,13.10
2023-04-10T16:11:55.017Z,12.75
2023-04-10T16:14:22.760Z,12.71
2023-04-10T16:16:50.938Z,12.86
2023-04-10T16:19:18.376Z,12.92
2023-04-10T16:21:45.816Z,12.94
2023-04-10T16:24:13.229Z,12.85
2023-04-10T16:26:40.627Z,12.93
2023-04-10T16:29:08.001Z,12.77
2023-04-10T16:31:35.485Z,12.93
2023-04-10T16:34:02.941Z,12.67
2023-04-10T16:36:30.317Z,12.85
2023-04-10T16:38:57.883Z,12.99
2023-04-10T16:41:25.789Z,12.76
2023-04-10T16:43:53.284Z,12.75
2023-04-10T16:46:21.135Z,12.67
2023-04-10T16:48:48.553Z,12.74
2023-04-10T16:51:17.573Z,12.78
2023-04-10T16:53:45.361Z,12.76
2023-04-10T16:56:12.980Z,12.72
2023-04-10T16:58:41.948Z,12.91
2023-04-10T17:01:20.000Z,12.82
2023-04-10T17:03:48.653Z,12.78
2023-04-10T17:06:16.570Z,12.68
2023-04-10T17:08:44.218Z,12.76
2023-04-10T17:11:12.924Z,12.81
2023-04-10T17:13:43.385Z,12.74
2023-04-10T17:16:11.056Z,12.73
2023-04-10T17:18:38.494Z,12.64
2023-04-10T17:21:06.076Z,12.62
2023-04-10T17:23:33.528Z,12.66
2023-04-10T17:26:01.018Z,12.68
2023-04-10T17:28:28.411Z,12.64
2023-04-10T17:30:55.871Z,12.64
2023-04-10T17:33:23.658Z,12.69
2023-04-10T17:35:51.965Z,12.72
2023-04-10T17:38:19.663Z,12.75
2023-04-10T17:40:47.020Z,12.60
2023-04-10T17:43:14.438Z,12.48
2023-04-10T17:45:41.998Z,12.51
2023-04-10T17:48:09.705Z,12.72
2023-04-10T17:50:37.249Z,12.65
2023-04-10T17:53:04.747Z,12.65
2023-04-10T17:55:32.133Z,12.65
2023-04-10T17:57:59.656Z,12.45
2023-04-10T18:00:27.135Z,12.44
2023-04-10T18:02:59.955Z,12.64
2023-04-10T18:05:27.953Z,12.66
2023-04-10T18:07:55.389Z,12.72
2023-04-10T18:10:23.031Z,12.47
2023-04-10T18:12:50.903Z,12.34
2023-04-10T18:15:18.734Z,12.34
2023-04-10T18:17:46.270Z,12.44
2023-04-10T18:20:14.732Z,12.45
2023-04-10T18:22:42.105Z,12.29
2023-04-10T18:25:09.710Z,12.41
2023-04-10T18:27:37.212Z,12.49
2023-04-10T18:30:04.766Z,12.33
2023-04-10T18:32:32.279Z,12.32
2023-04-10T18:34:59.966Z,12.45
2023-04-10T18:37:27.389Z,12.31
2023-04-10T18:39:56.933Z,12.52
2023-04-10T18:42:27.672Z,12.38
2023-04-10T18:44:55.074Z,12.58
2023-04-10T18:47:22.452Z,12.44
2023-04-10T18:49:49.863Z,12.76
2023-04-10T18:52:17.263Z,12.62
2023-04-10T18:54:45.815Z,12.75
2023-04-10T18:57:13.985Z,12.62
2023-04-10T18:59:41.519Z,12.67
2023-04-10T19:02:09.082Z,12.53
2023-04-10T19:04:36.762Z,12.55
2023-04-10T19:07:04.831Z,12.49
2023-04-10T19:09:32.229Z,12.50
2023-04-10T19:11:59.623Z,12.47
2023-04-10T19:14:27.025Z,12.37
2023-04-10T19:16:54.457Z,12.14
2023-04-10T19:19:21.857Z,12.15
2023-04-10T19:21:49.288Z,12.19
2023-04-10T19:24:16.705Z,12.36
2023-04-10T19:26:44.121Z,12.22
2023-04-10T19:29:13.394Z,12.15
2023-04-10T19:31:41.098Z,12.13
2023-04-10T19:34:11.190Z,12.44
2023-04-10T19:36:38.820Z,12.20
2023-04-10T19:39:06.354Z,11.98
2023-04-10T19:41:33.724Z,11.88
2023-04-10T19:44:01.194Z,11.90
2023-04-10T19:46:28.766Z,11.95
2023-04-10T19:48:56.311Z,11.89
2023-04-10T19:51:23.747Z,11.87
2023-04-10T19:53:51.165Z,11.83
2023-04-10T19:56:18.552Z,11.85
2023-04-10T19:58:47.021Z,11.94
2023-04-10T20:01:14.531Z,11.78
2023-04-10T20:03:42.122Z,11.87
2023-04-10T20:06:10.386Z,11.92
2023-04-10T20:08:37.949Z,11.75
2023-04-10T20:11:06.572Z,11.91
2023-04-10T20:13:34.729Z,11.90
2023-04-10T20:16:02.383Z,11.86
2023-04-10T20:18:29.827Z,11.73
2023-04-10T20:20:57.326Z,11.69
2023-04-10T20:23:24.696Z,11.77
2023-04-10T20:25:52.170Z,11.69
2023-04-10T20:28:19.556Z,11.74
2023-04-10T20:30:46.967Z,11.73
2023-04-10T20:33:14.419Z,11.61
2023-04-10T20:35:41.883Z,11.66
2023-04-10T20:38:09.406Z,11.70
2023-04-10T20:40:36.862Z,11.59
2023-04-10T20:43:10.733Z,11.75
2023-04-10T20:45:38.262Z,11.58
2023-04-10T20:48:05.823Z,11.72
2023-04-10T20:50:33.444Z,11.59
2023-04-10T20:53:00.889Z,11.62
2023-04-10T20:55:28.227Z,11.72
2023-04-10T20:57:55.691Z,11.71
2023-04-10T21:00:23.124Z,11.72
2023-04-10T21:02:50.617Z,11.63
2023-04-10T21:05:18.147Z,11.64
2023-04-10T21:07:46.213Z,11.75
2023-04-10T21:10:13.618Z,11.84
2023-04-10T21:12:41.036Z,11.70
2023-04-10T21:15:08.751Z,11.81
2023-04-10T21:17:36.199Z,11.69
2023-04-10T21:20:04.219Z,11.84
2023-04-10T21:22:31.669Z,11.75
2023-04-10T21:24:59.148Z,11.78
2023-04-10T21:27:26.533Z,11.71
2023-04-10T21:29:53.982Z,11.62
2023-04-10T21:32:21.506Z,11.72
2023-04-10T21:34:48.937Z,11.77
2023-04-10T21:37:16.346Z,11.83
2023-04-10T21:39:43.738Z,11.75
2023-04-10T21:42:11.116Z,11.83
2023-04-10T21:44:38.505Z,11.81
2023-04-10T21:47:06.575Z,11.65
2023-04-10T21:49:33.998Z,11.81
2023-04-10T21:52:01.415Z,11.74
2023-04-10T21:54:29.443Z,11.77
2023-04-10T21:56:56.821Z,11.92
2023-04-10T21:59:24.269Z,11.90
2023-04-10T22:01:51.783Z,11.88
2023-04-10T22:04:19.257Z,11.93
2023-04-10T22:06:46.746Z,11.98
2023-04-10T22:09:14.200Z,11.35
2023-04-10T22:11:41.574Z,10.95
2023-04-10T22:14:17.037Z,10.69
2023-04-10T22:16:45.637Z,10.39
2023-04-10T22:19:13.112Z,10.37
2023-04-10T22:21:40.666Z,10.22
2023-04-10T22:24:08.154Z,10.25
2023-04-10T22:26:35.844Z,10.13
2023-04-10T22:29:04.874Z,10.03
2023-04-10T22:31:32.321Z,10.09
2023-04-10T22:33:59.719Z,10.05
2023-04-10T22:36:32.095Z,10.10
2023-04-10T22:38:59.970Z,10.09
2023-04-10T22:41:27.461Z,10.09
2023-04-10T22:43:54.925Z,10.04
2023-04-10T22:46:22.373Z,10.12
2023-04-10T22:48:50.160Z,9.98
2023-04-10T22:51:18.122Z,9.97
2023-04-10T22:53:45.467Z,9.87
2023-04-10T22:56:12.991Z,9.81
2023-04-10T22:58:40.878Z,9.67
2023-04-10T23:01:08.930Z,9.64
2023-04-10T23:03:36.701Z,9.62
2023-04-10T23:06:04.463Z,9.40
2023-04-10T23:08:31.936Z,9.47
2023-04-10T23:10:59.366Z,9.41
2023-04-10T23:13:26.810Z,9.52
2023-04-10T23:15:55.437Z,9.52
2023-04-10T23:18:23.180Z,9.53
2023-04-10T23:20:50.924Z,9.53
2023-04-10T23:23:18.318Z,9.54
2023-04-10T23:25:45.726Z,9.47
2023-04-10T23:28:13.172Z,9.51
2023-04-10T23:30:42.085Z,9.53
2023-04-10T23:33:09.561Z,9.53
2023-04-10T23:35:37.130Z,9.44
2023-04-10T23:38:04.593Z,9.58
2023-04-10T23:40:31.934Z,9.72
2023-04-10T23:42:59.343Z,9.85
2023-04-10T23:45:26.741Z,9.78
2023-04-10T23:47:54.266Z,9.91
2023-04-10T23:50:21.800Z,9.84
2023-04-10T23:52:52.627Z,9.86
2023-04-10T23:55:21.519Z,9.88
2023-04-10T23:57:48.929Z,9.89
